• Join FlightAware (Why Join?)
  • Login
  • US Flag 
11:01AM EST


 

Airport Tracker/Info


-or-


 

Live Flight TrackerFlight Track Log ✈ EJA122 ✈ 20-Sep-2013 ✈ KSBN - KMDW

Flight Track Log - Related Links

Times and Time Zones

All times are in EDT time to prevent confusion due to time zone crossing. See the EJA122 flight status page for this flight to view local times or setup timezone preferences in your user account.

Time Position Orientation Groundspeed Altitude Reporting Facility
EDT Latitude Longitude Course Direction KTS MPH feet Rate Location/Type
05:37PM 41.6431 -86.4986 270° West 251 289 6,000  Level Chicago Center
05:38PM 41.6258 -86.5892 256° West 252 290 6,000  Level Chicago Center
05:39PM 41.6078 -86.6814 255° West 256 295 6,000  Level Chicago Center
05:40PM 41.5875 -86.7864 256° West 263 303 6,000  Level Chicago Center
05:41PM 41.7376 -86.8212 270° West  Level Estimated
05:41PM 41.5697 -86.8814 256° West 265 305 6,000  Level Chicago Center
05:42PM 41.7423 -86.9052 270° West  Level Estimated
05:42PM 41.5483 -86.9900 255° West 256 295 6,000  Level Chicago Center
05:43PM 41.5314 -87.0808 256° West 253 291 6,000  Level Chicago Center
05:44PM 41.5150 -87.1728 257° West 254 292 6,000  Level Chicago Center
05:45PM 41.5219 -87.2644 276° West 250 288 6,000  Level Chicago Center
05:46PM 41.5531 -87.3478 297° West 254 292 6,000 -480 Level Chicago Center
05:47PM 41.5664 -87.4281 283° West 228 262 5,100 -960 Descending Chicago Center
05:48PM 41.6067 -87.4928 310° West 201 231 4,100 -540 Descending Chicago Center
05:49PM 41.6361 -87.5397 310° West 182 209 4,000 -120 Descending Chicago Center
05:50PM 41.6683 -87.5869 312° West 175 201 3,900 -540 Descending Chicago Center
05:51PM 41.7008 -87.6350 312° West 175 201 2,900 -960 Descending Chicago Center
05:52PM 41.7333 -87.6803 314° West 156 180 2,000 -780 Descending Chicago Center
05:53PM 41.7547 -87.7092 315° West 125 144 1,400 -540 Descending Chicago Center
05:54PM 41.7742 -87.7356 315° West 119 137 1,000 -420 Descending Chicago Center
05:56PM 41.7833 -87.7500 334° Northwest  Level FlightAware Approximate